Colmar-Houssen Airport

Airport
ICAO code: 
LFGA
IATA Code: 
CMR
Summary
ICAO Region: 
EUR
Territory: 
Location: 
, Alsace
Serving: 
Colmar
Elevation: 
628 ft
Coordinates: 
Aerial View: 
48° 6' 35.471" N, 7° 21' 32.44" E
Metar
Observation
LFGA 020330Z AUTO 19008KT 9999 BKN036/// OVC042/// ///TCU 05/03 Q1002
Station
Colmar-Houssen
Date/Time
2021-12-02 03:30:00
Wind direction
190°
Wind speed
08 kts
Lowest cloud amount
broken clouds
Temperature
5°C
Dew point
3°C
Humidity
86%
QNH
1002 hPa
Weather condition
n/a

Runways

Designator Length Width Surface Rops
1/19 1610 30 ASP No/No
Airport map: 
Aerial View: 

SKYbrary Partners:

Safety knowledge contributed by: